Pagrindinis puslapis
METAR-TAF:

METAR-TAF

Oro uostai :

Shungnak, Aliaska, Jungtinės Amerikos Valstijos

platuma: 66-53-17N, ilguma: 157-09-45W, Aukštis: 60 m

Dabartinis oras

Ataskaita buvo paskelbta 17 minutes, ne 18:17 UTC
Vėjas 14 kt iš Rytų
Temperatūra -6°C
Drėgmė 86%
Slėgis 1037 hPa
Matomumas: 16.1 km
Su prošvaistėmis ne aukštis 500 ft

METAR: PAGH 221817Z AUTO 10014KT 10SM BKN005 M06/M08 A3061 RMK AO2 FZRANO

Laikas: 10:34 (18:34 UTC)


TAF: trūkstamas

Orai ataskaitas ir orų prognozės (METAR, TAF).

turimą stotys yra geltonos ir raudonos taškus žemėlapyje.

Perkelti pele per norėdami pamatyti stoties vardą.

Tada spustelėkite, norėdami matyti oro stebėjimo ir prognozės.

Norėdami pakeisti žemėlapį: spustelėkite ant žalios mygtukų su juodo kryžiaus žemyn,; žalią mygtuką su brūkšneliu, jei norite nutolinti; arba žalių rodyklių gretimoms žemėlapius.


METAR-TAF: